ADDS METAR Data INFO
IDs: Format: Raw Decoded Include TAF

Data at: 0340 UTC 28 Jun 2017

KLEB 280253Z AUTO 00000KT 10SM FEW039 11/09 A2995 RMK AO2 SLP139 T01060094 51018
KLEB 280153Z 17003KT 10SM CLR 12/11 A2994 RMK AO2 SLP136 T01220106
KLEB 280053Z 00000KT 10SM CLR 15/11 A2991 RMK AO2 SLP124 T01500106
KLEB 272353Z 18006KT 10SM CLR 16/11 A2990 RMK AO2 WSHFT 2245 LTG DSNT NE RAE18 SLP120 P0000 60000 T01610111 10222 20161 51014
KLEB 272324Z 22006KT 10SM FEW070 SCT100 18/08 A2990 RMK AO2 WSHFT 2245 LTG DSNT N AND NE RAE18 P0000 T01780083
KLEB 272305Z 26012G20KT 10SM VCTS -RA FEW049 BKN070 OVC090 19/08 A2990 RMK AO2 WSHFT 2245 LTG DSNT N AND NW P0000 T01890083
KLEB 272253Z 25015G27KT 10SM VCTS -RA FEW044 BKN080 OVC095 19/09 A2989 RMK AO2 PK WND 26027/2251 LTG DSNT N AND NW RAB51 SLP116 P0000 T01940094
KLEB 272153Z 24005KT 10SM BKN095 22/11 A2986 RMK AO2 LTG DSNT SW SLP105 T02170106
KLEB 272053Z VRB03KT 10SM CLR 21/11 A2988 RMK AO2 LTG DSNT SE SLP111 60000 T02110106 56013
KLEB 272005Z 18007KT 10SM BKN090 BKN120 19/13 A2988 RMK AO2 LTG DSNT ALQDS T01940128
KLEB 271953Z 18009KT 10SM VCTS SCT080 BKN090 19/13 A2989 RMK AO2 LTG DSNT N RAB12E43 SLP118 P0000 T01940133
KLEB 271907Z 19007KT 10SM VCTS FEW070 BKN100 21/12 A2990 RMK AO2 LTG DSNT S T02110122
KLEB 271853Z 19006KT 10SM FEW100 22/12 A2989 RMK AO2 LTG DSNT S AND SW SLP117 T02170122
KLEB 271753Z VRB06KT 10SM FEW100 FEW120 21/12 A2992 RMK AO2 LTG DSNT W SLP124 T02110117 10217 20144 58020
KLEB 271653Z 19010G16KT 10SM CLR 21/11 A2994 RMK AO2 SLP134 T02060111
KLEB 271553Z 20007KT 10SM FEW048 19/12 A2997 RMK AO2 SLP142 T01940122
KLEB 271453Z 19006KT 10SM FEW055 18/12 A2998 RMK AO2 SLP146 T01830122 58006
KLEB 271353Z 21005KT 10SM BKN100 17/14 A3000 RMK AO2 SLP155 T01720139
KLEB 271253Z 17004KT 10SM FEW006 BKN110 16/13 A3000 RMK AO2 SLP154 T01560133
KLEB 271153Z 00000KT 10SM FEW003 FEW120 14/13 A3000 RMK AO2 SLP153 60000 70004 T01440133 10144 20122 51006
KLEB 271105Z 00000KT 10SM SCT001 14/13 A3000 RMK AO2 T01390128
KLEB 271053Z 00000KT 10SM BKN001 14/13 A2999 RMK AO2 SLP151 T01390128
KLEB 270953Z AUTO 00000KT 10SM FEW001 13/12 A2998 RMK AO2 SLP150 T01280122
KLEB 270853Z AUTO 00000KT 10SM FEW001 SCT090 BKN120 13/12 A2998 RMK AO2 RAB0755E08 SLP147 P0000 60000 T01280122 55001
KLEB 270841Z AUTO 11003KT 10SM SCT001 BKN090 OVC110 13/12 A2998 RMK AO2 RAB0755E08 P0000 T01280122
KLEB 270834Z AUTO 00000KT 10SM BKN001 BKN090 OVC110 13/12 A2998 RMK AO2 RAB0755E08 P0000 T01280122
KLEB 270822Z AUTO 00000KT 10SM SCT001 SCT075 BKN090 13/13 A2998 RMK AO2 RAB0755E08 P0000 T01330128
KLEB 270753Z AUTO 06004KT 10SM SCT060 BKN080 OVC095 13/12 A2996 RMK AO2 RAB28E50 SLP139 P0000 T01330122
KLEB 270653Z AUTO 15003KT 10SM FEW070 OVC100 13/12 A2997 RMK AO2 SLP143 T01330122
KLEB 270553Z AUTO 06003KT 10SM OVC080 13/12 A2998 RMK AO2 SLP146 T01330122 10161 20117 58001
KLEB 270453Z AUTO 00000KT 10SM OVC095 13/12 A3000 RMK AO2 SLP151 T01280117 402440106
KLEB 270353Z AUTO 17005KT 10SM CLR 12/11 A2998 RMK AO2 SLP145 T01170111
KLEB 270253Z AUTO 00000KT 10SM FEW120 14/13 A2998 RMK AO2 SLP147 T01390128 53001
KLEB 270153Z 17003KT 10SM FEW090 BKN110 14/13 A2997 RMK AO2 SLP144 T01440133
KLEB 270053Z VRB04KT 10SM OVC095 15/13 A2997 RMK AO2 SLP143 T01500133
KLEB 262353Z 17005KT 10SM OVC080 16/14 A2998 RMK AO2 RAE26B42E53 SLP147 P0001 60004 T01560144 10244 20156 51008
KLEB 262253Z 00000KT 10SM -RA SCT060 BKN070 OVC100 17/14 A2998 RMK AO2 RAE02B34 SLP147 P0001 T01720144
KLEB 262153Z 17006KT 5SM -RA FEW026 BKN060 OVC070 17/14 A2997 RMK AO2 LTG DSNT SW RAE11B39 SLP143 P0001 T01720144
KLEB 262053Z 19008KT 6SM -RA OVC070 18/14 A2996 RMK AO2 LTG DSNT W RAB37 SLP140 P0001 60001 T01780139 53002
KLEB 261953Z 30006KT 10SM SCT085 BKN110 23/08 A2994 RMK AO2 SLP131 T02280083
KLEB 261853Z 33008KT 10SM BKN095 24/09 A2994 RMK AO2 SLP132 T02390089
KLEB 261753Z 26008KT 10SM BKN095 22/07 A2995 RMK AO2 SLP134 T02220072 10233 20172 58007
KLEB 261653Z 31007KT 10SM BKN055 BKN080 OVC090 22/08 A2996 RMK AO2 SLP136 T02220083
KLEB 261553Z VRB05KT 10SM BKN049 OVC070 23/09 A2997 RMK AO2 SLP139 T02280094


Page loaded:  03:40 UTC  |   08:40 PM Pacific  |   09:40 PM Mountain  |   10:40 PM Central  |   11:40 PM Eastern

 

ADVISORIES

FORECASTS

FORECASTS

OBSERVATIONS

USER TOOLS

ABOUT US